createdAt,value
2018-10-18T00:02:22.935Z,10.53
2018-10-18T00:04:51.593Z,10.07
2018-10-18T00:07:20.260Z,10.37
2018-10-18T00:09:48.985Z,10.03
2018-10-18T00:12:17.763Z,9.33
2018-10-18T00:14:46.388Z,9.60
2018-10-18T00:17:20.054Z,9.70
2018-10-18T00:19:48.624Z,10.17
2018-10-18T00:22:17.397Z,10.43
2018-10-18T00:24:46.076Z,10.40
2018-10-18T00:27:14.841Z,10.50
2018-10-18T00:29:43.514Z,10.63
2018-10-18T00:32:12.278Z,10.50
2018-10-18T00:34:40.974Z,10.03
2018-10-18T00:37:09.647Z,10.17
2018-10-18T00:39:38.441Z,10.10
2018-10-18T00:42:07.181Z,10.27
2018-10-18T00:44:35.856Z,9.53
2018-10-18T00:47:05.072Z,9.07
2018-10-18T00:49:33.674Z,9.90
2018-10-18T00:52:02.314Z,10.27
2018-10-18T00:54:30.984Z,10.37
2018-10-18T00:56:59.626Z,10.37
2018-10-18T00:59:28.269Z,9.83
2018-10-18T01:01:57.251Z,9.53
2018-10-18T01:04:25.893Z,9.57
2018-10-18T01:06:54.598Z,9.50
2018-10-18T01:09:23.250Z,8.80
2018-10-18T01:11:52.123Z,8.57
2018-10-18T01:14:20.907Z,8.90
2018-10-18T01:16:53.709Z,8.20
2018-10-18T01:19:22.391Z,9.10
2018-10-18T01:21:50.997Z,9.00
2018-10-18T01:24:19.666Z,9.17
2018-10-18T01:26:48.296Z,8.80
2018-10-18T01:29:16.995Z,9.10
2018-10-18T01:31:45.645Z,8.83
2018-10-18T01:34:14.488Z,9.33
2018-10-18T01:36:43.147Z,9.30
2018-10-18T01:39:11.890Z,8.83
2018-10-18T01:41:41.087Z,8.87
2018-10-18T01:44:09.883Z,9.73
2018-10-18T01:46:38.666Z,8.63
2018-10-18T01:49:07.597Z,8.33
2018-10-18T01:51:36.526Z,9.53
2018-10-18T01:54:05.442Z,9.40
2018-10-18T01:56:34.030Z,8.93
2018-10-18T01:59:02.682Z,9.10
2018-10-18T02:01:31.460Z,8.33
2018-10-18T02:04:01.189Z,9.23
2018-10-18T02:06:29.913Z,8.70
2018-10-18T02:08:58.538Z,7.87
2018-10-18T02:11:27.345Z,9.23
2018-10-18T02:13:56.037Z,9.80
2018-10-18T02:16:24.673Z,9.03
2018-10-18T02:18:53.374Z,9.50
2018-10-18T02:21:22.132Z,8.60
2018-10-18T02:23:50.864Z,9.03
2018-10-18T02:26:19.554Z,8.37
2018-10-18T02:28:48.240Z,8.90
2018-10-18T02:31:17.045Z,8.60
2018-10-18T02:33:48.668Z,8.83
2018-10-18T02:36:17.367Z,8.63
2018-10-18T02:38:46.006Z,8.70
2018-10-18T02:41:14.673Z,8.63
2018-10-18T02:43:43.350Z,9.07
2018-10-18T02:46:12.146Z,8.97
2018-10-18T02:48:40.889Z,9.67
2018-10-18T02:51:09.495Z,9.17
2018-10-18T02:53:38.161Z,9.07
2018-10-18T02:56:07.330Z,9.50
2018-10-18T02:58:36.068Z,9.13
2018-10-18T03:01:04.817Z,9.90
2018-10-18T03:03:33.530Z,10.03
2018-10-18T03:06:02.293Z,9.37
2018-10-18T03:08:30.962Z,10.00
2018-10-18T03:10:59.721Z,10.27
2018-10-18T03:13:28.430Z,10.80
2018-10-18T03:15:57.236Z,10.37
2018-10-18T03:18:26.334Z,11.40
2018-10-18T03:20:55.088Z,11.70
2018-10-18T03:23:23.829Z,11.23
2018-10-18T03:25:52.562Z,12.10
2018-10-18T03:28:21.278Z,11.17
2018-10-18T03:30:50.013Z,11.43
2018-10-18T03:33:18.829Z,11.87
2018-10-18T03:35:47.584Z,12.20
2018-10-18T03:38:16.324Z,11.47
2018-10-18T03:40:45.006Z,12.30
2018-10-18T03:43:13.825Z,12.30
2018-10-18T03:45:42.665Z,12.67
2018-10-18T03:48:11.370Z,12.20
2018-10-18T03:50:40.078Z,12.37
2018-10-18T03:53:08.777Z,12.60
2018-10-18T03:55:37.590Z,14.37
2018-10-18T03:58:06.429Z,15.60
2018-10-18T04:00:35.335Z,15.77
2018-10-18T04:03:04.083Z,16.03
2018-10-18T04:05:32.792Z,14.57
2018-10-18T04:08:01.962Z,14.37
2018-10-18T04:10:30.641Z,13.90
2018-10-18T04:12:59.290Z,12.80
2018-10-18T04:15:27.892Z,12.90
2018-10-18T04:17:56.602Z,14.10
2018-10-18T04:20:25.229Z,12.97
2018-10-18T04:22:53.897Z,13.47
2018-10-18T04:25:22.624Z,13.57
2018-10-18T04:27:51.841Z,12.50
2018-10-18T04:30:20.573Z,12.17
2018-10-18T04:32:49.213Z,11.90
2018-10-18T04:35:17.897Z,12.10
2018-10-18T04:37:46.802Z,13.10
2018-10-18T04:40:15.436Z,12.50
2018-10-18T04:42:44.391Z,13.27
2018-10-18T04:45:13.073Z,12.67
2018-10-18T04:47:41.888Z,12.63
2018-10-18T04:50:10.670Z,12.30
2018-10-18T04:52:39.283Z,13.70
2018-10-18T04:55:08.299Z,14.40
2018-10-18T04:57:36.817Z,12.43
2018-10-18T05:00:09.130Z,12.13
2018-10-18T05:02:37.936Z,12.50
2018-10-18T05:05:17.819Z,12.33
2018-10-18T05:07:46.793Z,13.50
2018-10-18T05:10:15.624Z,19.83
2018-10-18T05:12:44.338Z,17.60
2018-10-18T05:15:12.880Z,16.80
2018-10-18T05:17:41.815Z,15.37
2018-10-18T05:20:10.487Z,17.13
2018-10-18T05:22:39.134Z,17.33
2018-10-18T05:25:07.962Z,17.03
2018-10-18T05:27:36.537Z,16.80
2018-10-18T05:30:08.863Z,16.10
2018-10-18T05:32:37.866Z,17.57
2018-10-18T05:35:06.845Z,16.47
2018-10-18T05:37:35.643Z,16.57
2018-10-18T05:40:04.730Z,16.47
2018-10-18T05:42:33.386Z,14.70
2018-10-18T05:45:02.222Z,16.93
2018-10-18T05:47:30.903Z,15.87
2018-10-18T05:49:59.509Z,14.50
2018-10-18T05:52:28.253Z,15.47
2018-10-18T05:54:57.030Z,15.17
2018-10-18T05:57:25.877Z,16.13
2018-10-18T05:59:54.558Z,20.97
2018-10-18T06:02:23.511Z,22.13
2018-10-18T06:04:52.289Z,24.77
2018-10-18T06:07:20.993Z,24.77
2018-10-18T06:09:49.716Z,24.13
2018-10-18T06:12:18.540Z,23.47
2018-10-18T06:14:47.718Z,24.57
2018-10-18T06:17:16.513Z,24.07
2018-10-18T06:19:45.508Z,24.80
2018-10-18T06:22:14.167Z,23.97
2018-10-18T06:24:43.070Z,23.97
2018-10-18T06:27:11.862Z,21.97
2018-10-18T06:29:40.870Z,22.10
2018-10-18T06:32:09.574Z,19.17
2018-10-18T06:34:38.529Z,19.20
2018-10-18T06:37:07.819Z,19.10
2018-10-18T06:39:36.409Z,18.87
2018-10-18T06:42:05.285Z,19.63
2018-10-18T06:44:34.051Z,18.67
2018-10-18T06:47:03.204Z,18.93
2018-10-18T06:49:32.200Z,19.30
2018-10-18T06:52:01.047Z,19.07
2018-10-18T06:54:29.970Z,18.47
2018-10-18T06:56:58.737Z,17.33
2018-10-18T06:59:27.474Z,18.23
2018-10-18T07:01:56.177Z,18.87
2018-10-18T07:04:24.876Z,19.30
2018-10-18T07:06:53.539Z,19.13
2018-10-18T07:09:22.269Z,19.20
2018-10-18T07:11:51.588Z,18.50
2018-10-18T07:14:20.685Z,17.83
2018-10-18T07:16:49.747Z,19.90
2018-10-18T07:19:18.457Z,17.63
2018-10-18T07:21:47.225Z,17.87
2018-10-18T07:24:15.982Z,18.53
2018-10-18T07:26:44.649Z,17.70
2018-10-18T07:29:13.353Z,18.83
2018-10-18T07:31:42.076Z,16.23
2018-10-18T07:34:11.312Z,14.10
2018-10-18T07:36:39.961Z,12.13
2018-10-18T07:39:11.884Z,13.00
2018-10-18T07:41:40.701Z,13.53
2018-10-18T07:44:09.896Z,15.20
2018-10-18T07:46:38.598Z,13.60
2018-10-18T07:49:07.545Z,14.03
2018-10-18T07:51:36.599Z,13.78
2018-10-18T07:54:05.593Z,12.93
2018-10-18T07:56:34.311Z,12.23
2018-10-18T07:59:03.025Z,13.28
2018-10-18T08:01:32.389Z,14.20
2018-10-18T08:04:01.422Z,14.00
2018-10-18T08:06:30.113Z,14.45
2018-10-18T08:08:58.928Z,14.58
2018-10-18T08:11:27.986Z,14.83
2018-10-18T08:13:56.752Z,15.25
2018-10-18T08:16:25.768Z,15.63
2018-10-18T08:18:54.543Z,13.50
2018-10-18T08:21:23.278Z,13.95
2018-10-18T08:23:52.285Z,14.28
2018-10-18T08:26:21.362Z,14.63
2018-10-18T08:28:50.068Z,12.10
2018-10-18T08:31:19.173Z,12.05
2018-10-18T08:33:48.182Z,12.07
2018-10-18T08:36:16.868Z,13.25
2018-10-18T08:38:45.575Z,12.03
2018-10-18T08:41:14.480Z,13.30
2018-10-18T08:43:43.253Z,12.60
2018-10-18T08:46:11.926Z,11.33
2018-10-18T08:48:40.685Z,12.50
2018-10-18T08:51:09.370Z,12.78
2018-10-18T08:53:38.501Z,12.88
2018-10-18T08:56:07.550Z,14.38
2018-10-18T08:58:36.282Z,13.15
2018-10-18T09:01:05.255Z,12.15
2018-10-18T09:03:34.239Z,12.73
2018-10-18T09:06:02.945Z,12.30
2018-10-18T09:08:31.796Z,12.58
2018-10-18T09:11:00.556Z,9.55
2018-10-18T09:13:29.277Z,10.28
2018-10-18T09:15:58.277Z,9.73
2018-10-18T09:18:26.931Z,7.62
2018-10-18T09:20:55.641Z,8.50
2018-10-18T09:23:24.876Z,8.60
2018-10-18T09:25:53.877Z,9.13
2018-10-18T09:28:22.566Z,9.33
2018-10-18T09:30:51.341Z,9.05
2018-10-18T09:33:20.048Z,9.05
2018-10-18T09:35:48.814Z,8.90
2018-10-18T09:38:17.608Z,8.63
2018-10-18T09:40:46.314Z,8.20
2018-10-18T09:43:15.043Z,8.70
2018-10-18T09:45:43.951Z,8.53
2018-10-18T09:48:12.727Z,8.80
2018-10-18T09:50:41.398Z,8.08
2018-10-18T09:53:10.136Z,9.30
2018-10-18T09:55:38.931Z,8.63
2018-10-18T09:58:07.703Z,8.98
2018-10-18T10:00:41.509Z,9.28
2018-10-18T10:03:11.649Z,9.03
2018-10-18T10:05:40.482Z,9.75
2018-10-18T10:08:09.223Z,9.18
2018-10-18T10:10:38.033Z,10.75
2018-10-18T10:13:07.556Z,10.05
2018-10-18T10:15:36.181Z,9.63
2018-10-18T10:18:05.128Z,9.58
2018-10-18T10:20:34.199Z,8.43
2018-10-18T10:23:02.977Z,10.88
2018-10-18T10:25:31.714Z,9.45
2018-10-18T10:28:00.509Z,9.55
2018-10-18T10:30:29.332Z,8.90
2018-10-18T10:32:58.090Z,8.88
2018-10-18T10:35:26.850Z,8.05
2018-10-18T10:37:55.634Z,7.80
2018-10-18T10:40:24.384Z,9.53
2018-10-18T10:42:53.329Z,9.18
2018-10-18T10:45:22.252Z,8.18
2018-10-18T10:47:51.772Z,9.00
2018-10-18T10:50:20.834Z,8.08
2018-10-18T10:52:49.501Z,7.83
2018-10-18T10:55:18.517Z,9.68
2018-10-18T10:57:47.320Z,9.95
2018-10-18T11:00:24.857Z,10.13
2018-10-18T11:02:53.658Z,9.63
2018-10-18T11:05:22.535Z,9.55
2018-10-18T11:07:51.301Z,9.73
2018-10-18T11:10:20.091Z,9.15
2018-10-18T11:12:49.201Z,8.75
2018-10-18T11:15:18.273Z,9.83
2018-10-18T11:17:47.278Z,9.45
2018-10-18T11:20:16.091Z,9.15
2018-10-18T11:22:45.057Z,9.43
2018-10-18T11:25:13.801Z,8.60
2018-10-18T11:27:42.452Z,8.70
2018-10-18T11:30:11.703Z,9.28
2018-10-18T11:32:40.371Z,9.38
2018-10-18T11:35:09.402Z,9.80
2018-10-18T11:37:38.324Z,11.70
2018-10-18T11:40:07.665Z,9.80
2018-10-18T11:42:36.579Z,9.55
2018-10-18T11:45:05.741Z,8.33
2018-10-18T11:47:34.446Z,7.97
2018-10-18T11:50:03.152Z,8.83
2018-10-18T11:52:32.106Z,8.53
2018-10-18T11:55:00.936Z,9.15
2018-10-18T11:57:29.683Z,8.55
2018-10-18T11:59:58.440Z,8.70
2018-10-18T12:02:27.400Z,10.30
2018-10-18T12:04:56.379Z,9.45
2018-10-18T12:07:25.381Z,10.25
2018-10-18T12:09:54.118Z,9.55
2018-10-18T12:12:22.847Z,10.38
2018-10-18T12:14:51.641Z,9.13
2018-10-18T12:17:20.412Z,9.63
2018-10-18T12:19:49.240Z,9.83
2018-10-18T12:22:18.055Z,9.20
2018-10-18T12:24:46.832Z,8.83
2018-10-18T12:27:15.664Z,9.05
2018-10-18T12:29:44.470Z,10.45
2018-10-18T12:32:13.242Z,10.08
2018-10-18T12:34:42.120Z,10.90
2018-10-18T12:37:10.966Z,10.08
2018-10-18T12:39:40.457Z,9.43
2018-10-18T12:42:09.733Z,9.98
2018-10-18T12:44:41.404Z,9.60
2018-10-18T12:47:11.768Z,10.80
2018-10-18T12:49:41.632Z,10.10
2018-10-18T12:52:12.416Z,9.73
2018-10-18T12:54:41.409Z,9.87
2018-10-18T12:57:12.194Z,9.47
2018-10-18T12:59:40.999Z,10.53
2018-10-18T13:02:09.819Z,9.87
2018-10-18T13:04:38.772Z,10.13
2018-10-18T13:07:07.919Z,8.80
2018-10-18T13:09:36.740Z,9.43
2018-10-18T13:12:06.308Z,10.00
2018-10-18T13:14:35.082Z,9.50
2018-10-18T13:17:03.935Z,8.83
2018-10-18T13:19:32.688Z,9.77
2018-10-18T13:22:01.812Z,9.57
2018-10-18T13:24:30.651Z,9.63
2018-10-18T13:26:59.426Z,8.23
2018-10-18T13:29:28.523Z,8.33
2018-10-18T13:31:57.456Z,8.90
2018-10-18T13:34:26.353Z,8.47
2018-10-18T13:36:55.370Z,7.90
2018-10-18T13:39:24.121Z,8.77
2018-10-18T13:41:52.954Z,8.67
2018-10-18T13:44:22.088Z,8.67
2018-10-18T13:46:50.890Z,8.33
2018-10-18T13:49:19.642Z,8.77
2018-10-18T13:51:48.804Z,10.17
2018-10-18T13:54:17.824Z,10.00
2018-10-18T13:56:46.508Z,12.33
2018-10-18T13:59:26.295Z,7.90
2018-10-18T14:01:55.013Z,8.03
2018-10-18T14:04:23.947Z,9.00
2018-10-18T14:06:52.777Z,8.13
2018-10-18T14:09:21.574Z,8.33
2018-10-18T14:11:50.405Z,7.83
2018-10-18T14:14:19.207Z,9.07
2018-10-18T14:16:47.901Z,8.63
2018-10-18T14:19:16.645Z,7.67
2018-10-18T14:21:45.858Z,7.63
2018-10-18T14:24:14.763Z,8.00
2018-10-18T14:26:43.576Z,8.40
2018-10-18T14:29:12.591Z,8.53
2018-10-18T14:31:42.089Z,8.23
2018-10-18T14:34:11.358Z,8.50
2018-10-18T14:36:40.131Z,8.73
2018-10-18T14:39:09.694Z,9.10
2018-10-18T14:41:38.839Z,8.77
2018-10-18T14:44:07.683Z,9.23
2018-10-18T14:46:36.576Z,10.27
2018-10-18T14:49:05.404Z,8.90
2018-10-18T14:51:34.462Z,10.03
2018-10-18T14:54:03.216Z,11.40
2018-10-18T14:56:31.882Z,11.80
2018-10-18T14:59:00.699Z,10.67
2018-10-18T15:01:29.450Z,10.27
2018-10-18T15:03:58.179Z,10.90
2018-10-18T15:06:26.964Z,11.07
2018-10-18T15:08:55.724Z,10.43
2018-10-18T15:11:24.464Z,12.73
2018-10-18T15:13:53.204Z,15.37
2018-10-18T15:16:21.899Z,12.00
2018-10-18T15:18:50.636Z,11.63
2018-10-18T15:21:19.339Z,11.83
2018-10-18T15:23:48.059Z,12.73
2018-10-18T15:26:16.905Z,12.27
2018-10-18T15:28:45.591Z,11.43
2018-10-18T15:31:14.277Z,11.73
2018-10-18T15:33:42.984Z,12.43
2018-10-18T15:36:11.770Z,11.87
2018-10-18T15:38:40.623Z,11.90
2018-10-18T15:41:09.237Z,12.37
2018-10-18T15:43:37.835Z,13.53
2018-10-18T15:46:06.725Z,13.83
2018-10-18T15:48:35.491Z,13.40
2018-10-18T15:51:04.258Z,14.63
2018-10-18T15:53:32.989Z,14.70
2018-10-18T15:56:01.760Z,14.20
2018-10-18T15:58:30.511Z,14.90
2018-10-18T16:00:59.209Z,14.77
2018-10-18T16:03:27.906Z,14.57
2018-10-18T16:05:56.660Z,14.40
2018-10-18T16:08:25.848Z,15.17
2018-10-18T16:10:54.670Z,18.80
2018-10-18T16:13:23.580Z,15.07
2018-10-18T16:15:54.468Z,14.47
2018-10-18T16:18:23.382Z,14.50
2018-10-18T16:20:52.296Z,14.30
2018-10-18T16:23:21.249Z,13.00
2018-10-18T16:25:50.148Z,14.47
2018-10-18T16:28:18.887Z,14.03
2018-10-18T16:30:47.991Z,12.53
2018-10-18T16:33:17.344Z,13.20
2018-10-18T16:35:46.273Z,13.97
2018-10-18T16:38:15.325Z,12.97
2018-10-18T16:40:44.067Z,12.43
2018-10-18T16:43:13.285Z,12.90
2018-10-18T16:45:42.106Z,12.53
2018-10-18T16:48:11.213Z,13.87
2018-10-18T16:50:40.121Z,11.57
2018-10-18T16:53:09.242Z,10.43
2018-10-18T16:55:38.137Z,9.67
2018-10-18T16:58:06.956Z,8.57
2018-10-18T17:00:35.770Z,7.23
2018-10-18T17:03:04.596Z,7.97
2018-10-18T17:05:33.428Z,7.60
2018-10-18T17:08:02.521Z,7.90
2018-10-18T17:10:31.424Z,8.23
2018-10-18T17:13:00.388Z,7.20
2018-10-18T17:15:29.283Z,7.70
2018-10-18T17:17:58.171Z,7.73
2018-10-18T17:20:27.204Z,7.07
2018-10-18T17:22:56.018Z,6.70
2018-10-18T17:25:25.074Z,7.07
2018-10-18T17:27:54.360Z,6.97
2018-10-18T17:30:23.243Z,7.23
2018-10-18T17:32:52.432Z,7.90
2018-10-18T17:35:21.390Z,7.80
2018-10-18T17:37:50.275Z,7.60
2018-10-18T17:40:19.975Z,8.13
2018-10-18T17:42:48.763Z,7.73
2018-10-18T17:45:17.616Z,7.83
2018-10-18T17:47:46.490Z,8.10
2018-10-18T17:50:15.345Z,8.07
2018-10-18T17:52:44.041Z,8.03
2018-10-18T17:55:12.809Z,7.50
2018-10-18T17:57:41.711Z,8.27
2018-10-18T18:00:12.261Z,7.77
2018-10-18T18:02:41.330Z,9.13
2018-10-18T18:05:10.938Z,8.97
2018-10-18T18:07:39.785Z,9.40
2018-10-18T18:10:13.303Z,8.90
2018-10-18T18:12:42.094Z,9.03
2018-10-18T18:15:11.223Z,10.07
2018-10-18T18:17:40.403Z,9.43
2018-10-18T18:20:10.494Z,10.03
2018-10-18T18:22:39.355Z,10.73
2018-10-18T18:25:10.079Z,10.60
2018-10-18T18:27:39.120Z,10.23
2018-10-18T18:30:14.345Z,10.33
2018-10-18T18:32:43.550Z,9.67
2018-10-18T18:35:12.287Z,9.93
2018-10-18T18:37:41.290Z,9.50
2018-10-18T18:40:10.860Z,9.37
2018-10-18T18:42:40.384Z,8.97
2018-10-18T18:45:14.382Z,9.17
2018-10-18T18:47:43.089Z,9.70
2018-10-18T18:50:11.902Z,10.20
2018-10-18T18:52:40.954Z,9.67
2018-10-18T18:55:10.932Z,10.13
2018-10-18T18:57:39.765Z,9.77
2018-10-18T19:00:12.390Z,9.43
2018-10-18T19:02:41.799Z,10.50
2018-10-18T19:05:10.829Z,10.17
2018-10-18T19:07:40.064Z,9.73
2018-10-18T19:10:09.194Z,10.30
2018-10-18T19:12:37.995Z,10.27
2018-10-18T19:15:08.271Z,11.00
2018-10-18T19:17:37.362Z,11.13
2018-10-18T19:20:06.482Z,10.83
2018-10-18T19:22:35.303Z,10.93
2018-10-18T19:25:04.137Z,10.60
2018-10-18T19:27:32.956Z,11.67
2018-10-18T19:30:01.805Z,11.20
2018-10-18T19:32:30.658Z,11.03
2018-10-18T19:34:59.391Z,11.87
2018-10-18T19:37:28.596Z,12.30
2018-10-18T19:39:57.354Z,12.90
2018-10-18T19:42:26.172Z,12.93
2018-10-18T19:44:54.934Z,12.30
2018-10-18T19:47:23.670Z,12.27
2018-10-18T19:49:52.554Z,12.03
2018-10-18T19:52:21.506Z,11.30
2018-10-18T19:54:50.422Z,11.10
2018-10-18T19:57:19.097Z,10.73
2018-10-18T19:59:47.898Z,10.70
2018-10-18T20:02:16.606Z,10.37
2018-10-18T20:04:45.579Z,10.43
2018-10-18T20:07:14.271Z,10.30
2018-10-18T20:09:43.011Z,10.57
2018-10-18T20:12:12.170Z,10.77
2018-10-18T20:14:40.755Z,10.90
2018-10-18T20:17:09.549Z,11.23
2018-10-18T20:19:38.478Z,12.57
2018-10-18T20:22:10.377Z,11.77
2018-10-18T20:24:39.079Z,11.30
2018-10-18T20:27:08.457Z,11.03
2018-10-18T20:29:37.435Z,11.70
2018-10-18T20:32:06.589Z,11.30
2018-10-18T20:34:35.285Z,11.30
2018-10-18T20:37:04.135Z,11.50
2018-10-18T20:39:32.832Z,11.07
2018-10-18T20:42:01.549Z,11.23
2018-10-18T20:44:30.333Z,11.03
2018-10-18T20:46:59.224Z,10.43
2018-10-18T20:49:27.838Z,11.17
2018-10-18T20:51:56.643Z,10.97
2018-10-18T20:54:25.468Z,12.27
2018-10-18T20:56:54.181Z,12.77
2018-10-18T20:59:23.541Z,12.23
2018-10-18T21:01:52.579Z,11.37
2018-10-18T21:04:21.326Z,11.03
2018-10-18T21:06:51.205Z,10.57
2018-10-18T21:09:19.939Z,10.33
2018-10-18T21:11:48.639Z,10.60
2018-10-18T21:14:17.333Z,10.53
2018-10-18T21:16:45.975Z,10.33
2018-10-18T21:19:21.250Z,10.77
2018-10-18T21:21:49.957Z,10.37
2018-10-18T21:24:18.687Z,10.07
2018-10-18T21:26:48.756Z,10.90
2018-10-18T21:29:17.649Z,10.63
2018-10-18T21:31:46.386Z,10.53
2018-10-18T21:34:15.129Z,10.60
2018-10-18T21:36:43.770Z,10.13
2018-10-18T21:39:12.666Z,10.60
2018-10-18T21:41:41.261Z,11.27
2018-10-18T21:44:09.990Z,11.50
2018-10-18T21:46:38.704Z,11.63
2018-10-18T21:49:07.402Z,12.47
2018-10-18T21:51:36.126Z,13.20
2018-10-18T21:54:05.337Z,13.27
2018-10-18T21:56:34.135Z,13.47
2018-10-18T21:59:02.857Z,14.77
2018-10-18T22:01:31.674Z,15.47
2018-10-18T22:04:00.362Z,14.63
2018-10-18T22:06:29.013Z,14.40
2018-10-18T22:08:57.736Z,15.67
2018-10-18T22:11:26.509Z,16.43
2018-10-18T22:13:55.223Z,15.13
2018-10-18T22:16:23.937Z,15.33
2018-10-18T22:18:52.879Z,16.90
2018-10-18T22:21:21.598Z,16.60
2018-10-18T22:23:50.277Z,17.33
2018-10-18T22:26:18.915Z,16.57
2018-10-18T22:28:47.616Z,16.90
2018-10-18T22:31:16.306Z,16.73
2018-10-18T22:33:45.049Z,16.63
2018-10-18T22:36:13.716Z,15.90
2018-10-18T22:38:42.393Z,15.57
2018-10-18T22:41:12.809Z,15.07
2018-10-18T22:43:42.501Z,16.27
2018-10-18T22:46:11.334Z,15.47
2018-10-18T22:48:40.012Z,17.07
2018-10-18T22:51:08.695Z,16.70
2018-10-18T22:53:37.274Z,18.57
2018-10-18T22:56:05.985Z,18.23
2018-10-18T22:58:34.629Z,19.97
2018-10-18T23:01:03.386Z,17.03
2018-10-18T23:03:32.025Z,16.93
2018-10-18T23:06:00.718Z,17.10
2018-10-18T23:08:29.352Z,17.53
2018-10-18T23:10:58.006Z,15.73
2018-10-18T23:13:26.624Z,16.50
2018-10-18T23:15:55.305Z,14.80
2018-10-18T23:18:23.954Z,15.57
2018-10-18T23:20:52.788Z,16.50
2018-10-18T23:23:21.839Z,16.60
2018-10-18T23:25:50.566Z,17.37
2018-10-18T23:28:19.260Z,17.20
2018-10-18T23:30:48.017Z,17.50
2018-10-18T23:33:16.706Z,16.50
2018-10-18T23:35:45.352Z,17.43
2018-10-18T23:38:14.000Z,16.73
2018-10-18T23:40:42.687Z,17.77
2018-10-18T23:43:11.375Z,16.90
2018-10-18T23:45:39.985Z,16.27
2018-10-18T23:48:08.750Z,16.83
2018-10-18T23:50:37.351Z,16.93
2018-10-18T23:53:06.193Z,16.90
2018-10-18T23:55:34.880Z,17.03
2018-10-18T23:58:03.501Z,16.37
